createdAt,value
2019-04-01T00:02:08.825Z,96982.59
2019-04-01T00:04:40.799Z,96982.86
2019-04-01T00:07:12.528Z,96983.42
2019-04-01T00:09:44.395Z,96977.27
2019-04-01T00:12:16.126Z,96970.97
2019-04-01T00:14:47.915Z,96978.59
2019-04-01T00:17:19.636Z,96968.25
2019-04-01T00:19:51.534Z,96973.99
2019-04-01T00:22:23.252Z,96969.36
2019-04-01T00:24:54.964Z,96977.07
2019-04-01T00:27:26.708Z,96974.81
2019-04-01T00:29:58.415Z,96978.88
2019-04-01T00:32:30.182Z,96976.18
2019-04-01T00:35:01.888Z,96976.81
2019-04-01T00:37:33.711Z,96977.64
2019-04-01T00:40:05.744Z,96978.39
2019-04-01T00:42:45.588Z,96973.03
2019-04-01T00:45:18.882Z,96964.36
2019-04-01T00:47:50.644Z,96970.40
2019-04-01T00:50:22.515Z,96962.58
2019-04-01T00:52:54.340Z,96962.73
2019-04-01T00:55:26.138Z,96955.20
2019-04-01T00:57:58.211Z,96954.44
2019-04-01T01:00:29.926Z,96951.98
2019-04-01T01:03:01.676Z,96953.95
2019-04-01T01:05:33.640Z,96949.16
2019-04-01T01:08:05.396Z,96948.93
2019-04-01T01:10:37.372Z,96955.27
2019-04-01T01:13:09.479Z,96955.62
2019-04-01T01:15:41.274Z,96954.72
2019-04-01T01:18:13.099Z,96948.21
2019-04-01T01:20:45.086Z,96953.22
2019-04-01T01:23:16.816Z,96947.31
2019-04-01T01:25:48.794Z,96945.59
2019-04-01T01:28:20.603Z,96942.91
2019-04-01T01:30:52.484Z,96946.07
2019-04-01T01:33:24.280Z,96944.41
2019-04-01T01:35:55.994Z,96944.42
2019-04-01T01:38:27.743Z,96938.41
2019-04-01T01:40:59.708Z,96938.83
2019-04-01T01:43:31.440Z,96931.16
2019-04-01T01:46:03.578Z,96938.45
2019-04-01T01:48:35.322Z,96937.87
2019-04-01T01:51:07.056Z,96932.33
2019-04-01T01:53:41.676Z,96926.77
2019-04-01T01:56:12.579Z,96930.79
2019-04-01T01:58:45.417Z,96936.50
2019-04-01T02:01:17.143Z,96933.22
2019-04-01T02:03:48.880Z,96929.73
2019-04-01T02:06:20.588Z,96920.39
2019-04-01T02:08:52.421Z,96930.08
2019-04-01T02:11:24.216Z,96928.72
2019-04-01T02:13:55.947Z,96923.86
2019-04-01T02:16:27.904Z,96918.20
2019-04-01T02:18:59.694Z,96917.65
2019-04-01T02:21:31.672Z,96926.09
2019-04-01T02:24:03.401Z,96922.90
2019-04-01T02:26:35.179Z,96916.52
2019-04-01T02:29:06.966Z,96916.34
2019-04-01T02:31:38.748Z,96913.61
2019-04-01T02:34:11.984Z,96912.72
2019-04-01T02:36:44.038Z,96913.55
2019-04-01T02:39:15.764Z,96913.39
2019-04-01T02:41:47.473Z,96905.75
2019-04-01T02:44:19.213Z,96916.05
2019-04-01T02:46:51.258Z,96913.07
2019-04-01T02:49:23.263Z,96916.70
2019-04-01T02:51:56.226Z,96914.73
2019-04-01T02:54:28.204Z,96911.89
2019-04-01T02:57:00.087Z,96920.75
2019-04-01T02:59:31.892Z,96921.05
2019-04-01T03:02:03.671Z,96920.33
2019-04-01T03:04:35.733Z,96916.45
2019-04-01T03:07:07.600Z,96919.69
2019-04-01T03:09:39.318Z,96917.35
2019-04-01T03:12:11.769Z,96915.74
2019-04-01T03:14:43.513Z,96916.40
2019-04-01T03:17:15.469Z,96915.97
2019-04-01T03:19:47.189Z,96914.14
2019-04-01T03:22:18.908Z,96915.33
2019-04-01T03:24:50.598Z,96904.27
2019-04-01T03:27:23.365Z,96908.32
2019-04-01T03:29:55.056Z,96904.20
2019-04-01T03:32:26.924Z,96908.52
2019-04-01T03:34:58.671Z,96907.36
2019-04-01T03:37:30.351Z,96901.54
2019-04-01T03:40:02.047Z,96903.28
2019-04-01T03:42:33.730Z,96902.97
2019-04-01T03:45:05.898Z,96902.20
2019-04-01T03:47:37.651Z,96911.58
2019-04-01T03:50:09.490Z,96909.19
2019-04-01T03:52:41.180Z,96902.86
2019-04-01T03:55:12.950Z,96905.81
2019-04-01T03:57:44.802Z,96906.83
2019-04-01T04:00:16.655Z,96910.08
2019-04-01T04:02:48.494Z,96905.39
2019-04-01T04:05:20.117Z,96903.81
2019-04-01T04:07:52.128Z,96905.87
2019-04-01T04:10:23.835Z,96904.33
2019-04-01T04:12:55.513Z,96904.61
2019-04-01T04:15:27.211Z,96904.02
2019-04-01T04:17:58.973Z,96907.17
2019-04-01T04:20:30.666Z,96909.22
2019-04-01T04:23:02.499Z,96912.86
2019-04-01T04:25:35.317Z,96902.26
2019-04-01T04:28:08.145Z,96901.02
2019-04-01T04:30:39.929Z,96901.42
2019-04-01T04:33:11.700Z,96898.58
2019-04-01T04:35:43.459Z,96900.83
2019-04-01T04:38:15.219Z,96903.36
2019-04-01T04:40:46.992Z,96903.84
2019-04-01T04:43:18.841Z,96904.14
2019-04-01T04:45:50.549Z,96903.55
2019-04-01T04:48:23.297Z,96902.02
2019-04-01T04:50:55.069Z,96910.98
2019-04-01T04:53:26.765Z,96906.52
2019-04-01T04:55:58.461Z,96917.84
2019-04-01T04:58:30.205Z,96919.16
2019-04-01T05:01:02.348Z,96925.85
2019-04-01T05:03:34.330Z,96926.44
2019-04-01T05:06:06.105Z,96929.73
2019-04-01T05:08:38.231Z,96931.12
2019-04-01T05:11:11.171Z,96933.06
2019-04-01T05:13:42.865Z,96930.76
2019-04-01T05:16:14.724Z,96932.57
2019-04-01T05:18:46.416Z,96939.16
2019-04-01T05:21:19.652Z,96932.62
2019-04-01T05:23:54.717Z,96934.84
2019-04-01T05:26:28.078Z,96933.76
2019-04-01T05:29:01.338Z,96937.73
2019-04-01T05:31:35.296Z,96941.56
2019-04-01T05:34:08.136Z,96938.92
2019-04-01T05:36:39.994Z,96937.87
2019-04-01T05:39:11.776Z,96946.43
2019-04-01T05:41:43.626Z,96942.05
2019-04-01T05:44:16.726Z,96942.13
2019-04-01T05:46:48.540Z,96940.25
2019-04-01T05:49:20.410Z,96946.88
2019-04-01T05:51:52.202Z,96944.65
2019-04-01T05:54:24.445Z,96941.95
2019-04-01T05:56:56.292Z,96940.81
2019-04-01T05:59:28.679Z,96939.59
2019-04-01T06:02:00.844Z,96944.41
2019-04-01T06:04:33.047Z,96948.47
2019-04-01T06:07:04.891Z,96947.72
2019-04-01T06:09:36.655Z,96945.66
2019-04-01T06:12:08.424Z,96945.33
2019-04-01T06:14:40.464Z,96948.34
2019-04-01T06:17:12.324Z,96947.05
2019-04-01T06:19:44.158Z,96953.69
2019-04-01T06:22:16.212Z,96956.55
2019-04-01T06:24:48.347Z,96946.95
2019-04-01T06:27:20.385Z,96946.42
2019-04-01T06:29:52.234Z,96948.04
2019-04-01T06:32:24.728Z,96944.78
2019-04-01T06:34:56.490Z,96949.80
2019-04-01T06:37:28.272Z,96945.55
2019-04-01T06:40:01.253Z,96944.02
2019-04-01T06:42:33.115Z,96944.12
2019-04-01T06:45:06.939Z,96941.21
2019-04-01T06:47:38.781Z,96950.41
2019-04-01T06:50:10.711Z,96943.93
2019-04-01T06:52:42.648Z,96943.64
2019-04-01T06:55:14.568Z,96944.52
2019-04-01T06:57:46.334Z,96944.40
2019-04-01T07:00:18.450Z,96946.31
2019-04-01T07:02:50.311Z,96945.42
2019-04-01T07:05:21.994Z,96946.33
2019-04-01T07:07:53.838Z,96948.39
2019-04-01T07:10:25.679Z,96945.83
2019-04-01T07:12:57.464Z,96949.21
2019-04-01T07:15:29.305Z,96948.95
2019-04-01T07:18:01.232Z,96946.17
2019-04-01T07:20:33.000Z,96946.05
2019-04-01T07:23:04.835Z,96940.90
2019-04-01T07:25:36.758Z,96934.38
2019-04-01T07:28:08.818Z,96926.02
2019-04-01T07:30:41.916Z,96928.03
2019-04-01T07:33:13.830Z,96930.63
2019-04-01T07:35:46.773Z,96930.08
2019-04-01T07:38:20.131Z,96931.25
2019-04-01T07:40:51.966Z,96934.47
2019-04-01T07:43:24.238Z,96933.85
2019-04-01T07:45:56.001Z,96935.48
2019-04-01T07:48:27.782Z,96932.58
2019-04-01T07:50:59.613Z,96935.90
2019-04-01T07:53:31.395Z,96931.10
2019-04-01T07:56:03.214Z,96945.41
2019-04-01T07:58:35.367Z,96938.12
2019-04-01T08:01:07.211Z,96941.72
2019-04-01T08:03:41.825Z,96933.88
2019-04-01T08:06:13.405Z,96940.08
2019-04-01T08:08:46.369Z,96938.73
2019-04-01T08:11:18.332Z,96942.30
2019-04-01T08:13:50.071Z,96938.90
2019-04-01T08:16:22.325Z,96941.52
2019-04-01T08:18:54.167Z,96936.02
2019-04-01T08:21:25.930Z,96939.77
2019-04-01T08:23:57.783Z,96938.67
2019-04-01T08:26:29.636Z,96937.25
2019-04-01T08:29:01.473Z,96934.02
2019-04-01T08:31:33.315Z,96935.02
2019-04-01T08:34:05.458Z,96934.74
2019-04-01T08:36:37.300Z,96928.61
2019-04-01T08:39:14.512Z,96928.41
2019-04-01T08:41:46.348Z,96930.78
2019-04-01T08:44:18.518Z,96931.69
2019-04-01T08:46:50.377Z,96926.29
2019-04-01T08:49:22.514Z,96928.00
2019-04-01T08:51:55.325Z,96928.06
2019-04-01T08:54:27.394Z,96919.20
2019-04-01T08:56:59.212Z,96922.59
2019-04-01T08:59:31.041Z,96916.73
2019-04-01T09:02:16.784Z,96922.05
2019-04-01T09:04:36.383Z,96921.26
2019-04-01T09:07:08.151Z,96919.94
2019-04-01T09:09:40.631Z,96916.02
2019-04-01T09:12:12.760Z,96909.95
2019-04-01T09:14:45.305Z,96907.82
2019-04-01T09:17:17.259Z,96907.02
2019-04-01T09:19:48.980Z,96899.45
2019-04-01T09:22:20.744Z,96900.45
2019-04-01T09:24:52.634Z,96901.76
2019-04-01T09:27:24.506Z,96898.48
2019-04-01T09:29:56.246Z,96899.30
2019-04-01T09:32:28.123Z,96901.59
2019-04-01T09:34:59.873Z,96898.13
2019-04-01T09:37:31.671Z,96892.37
2019-04-01T09:40:03.577Z,96891.20
2019-04-01T09:42:35.465Z,96884.92
2019-04-01T09:45:08.068Z,96881.28
2019-04-01T09:47:39.869Z,96881.63
2019-04-01T09:50:12.207Z,96879.97
2019-04-01T09:52:44.003Z,96877.00
2019-04-01T09:55:15.891Z,96875.01
2019-04-01T09:57:47.620Z,96862.73
2019-04-01T10:00:21.376Z,96857.73
2019-04-01T10:02:53.305Z,96862.67
2019-04-01T10:05:25.471Z,96862.67
2019-04-01T10:07:57.339Z,96856.05
2019-04-01T10:10:29.110Z,96854.97
2019-04-01T10:13:00.846Z,96851.20
2019-04-01T10:15:32.836Z,96847.27
2019-04-01T10:18:04.805Z,96849.25
2019-04-01T10:20:37.285Z,96846.73
2019-04-01T10:23:09.007Z,96841.42
2019-04-01T10:25:40.749Z,96840.06
2019-04-01T10:28:12.617Z,96842.88
2019-04-01T10:30:44.489Z,96838.36
2019-04-01T10:33:17.922Z,96839.10
2019-04-01T10:35:49.734Z,96831.17
2019-04-01T10:38:21.526Z,96833.64
2019-04-01T10:40:53.361Z,96820.00
2019-04-01T10:43:25.335Z,96823.17
2019-04-01T10:45:57.061Z,96823.99
2019-04-01T10:48:28.850Z,96831.36
2019-04-01T10:51:00.629Z,96818.31
2019-04-01T10:53:33.588Z,96822.45
2019-04-01T10:56:05.487Z,96820.02
2019-04-01T10:58:37.667Z,96813.67
2019-04-01T11:01:09.665Z,96814.45
2019-04-01T11:03:42.829Z,96810.33
2019-04-01T11:06:14.610Z,96811.00
2019-04-01T11:08:46.539Z,96809.19
2019-04-01T11:11:19.514Z,96805.88
2019-04-01T11:13:51.930Z,96801.96
2019-04-01T11:16:25.257Z,96799.22
2019-04-01T11:18:59.252Z,96793.28
2019-04-01T11:21:31.147Z,96790.03
2019-04-01T11:24:02.933Z,96797.56
2019-04-01T11:26:36.556Z,96789.53
2019-04-01T11:29:08.129Z,96785.13
2019-04-01T11:31:40.960Z,96781.58
2019-04-01T11:34:12.720Z,96782.40
2019-04-01T11:36:44.503Z,96778.17
2019-04-01T11:39:16.358Z,96778.12
2019-04-01T11:41:48.206Z,96767.20
2019-04-01T11:44:20.068Z,96764.00
2019-04-01T11:46:53.394Z,96761.37
2019-04-01T11:49:25.603Z,96762.92
2019-04-01T11:51:57.497Z,96752.88
2019-04-01T11:54:29.276Z,96752.11
2019-04-01T11:57:01.008Z,96748.25
2019-04-01T11:59:32.798Z,96746.99
2019-04-01T12:02:04.664Z,96739.84
2019-04-01T12:04:36.446Z,96743.98
2019-04-01T12:07:08.244Z,96734.73
2019-04-01T12:09:40.088Z,96729.31
2019-04-01T12:12:23.674Z,96728.78
2019-04-01T12:14:45.428Z,96727.81
2019-04-01T12:17:17.233Z,96721.55
2019-04-01T12:19:52.974Z,96718.28
2019-04-01T12:22:23.282Z,96714.28
2019-04-01T12:24:55.102Z,96708.31
2019-04-01T12:27:26.971Z,96705.55
2019-04-01T12:29:58.757Z,96704.75
2019-04-01T12:32:30.505Z,96701.00
2019-04-01T12:35:02.617Z,96691.72
2019-04-01T12:37:34.360Z,96693.35
2019-04-01T12:40:06.744Z,96692.63
2019-04-01T12:42:38.474Z,96694.75
2019-04-01T12:45:10.906Z,96688.40
2019-04-01T12:47:43.640Z,96678.37
2019-04-01T12:50:16.163Z,96679.16
2019-04-01T12:52:47.964Z,96680.45
2019-04-01T12:55:19.769Z,96685.30
2019-04-01T12:57:51.590Z,96684.09
2019-04-01T13:00:23.620Z,96671.91
2019-04-01T13:02:55.727Z,96672.83
2019-04-01T13:05:27.503Z,96667.42
2019-04-01T13:08:00.553Z,96660.80
2019-04-01T13:10:33.474Z,96653.84
2019-04-01T13:13:05.283Z,96650.89
2019-04-01T13:15:36.982Z,96645.75
2019-04-01T13:18:08.772Z,96649.22
2019-04-01T13:20:41.945Z,96646.64
2019-04-01T13:23:13.943Z,96638.22
2019-04-01T13:25:45.676Z,96628.27
2019-04-01T13:28:17.507Z,96633.60
2019-04-01T13:30:49.720Z,96627.01
2019-04-01T13:33:21.590Z,96618.02
2019-04-01T13:35:53.366Z,96616.91
2019-04-01T13:38:25.397Z,96621.28
2019-04-01T13:40:57.185Z,96616.09
2019-04-01T13:43:29.983Z,96610.48
2019-04-01T13:46:02.138Z,96606.45
2019-04-01T13:48:33.966Z,96603.39
2019-04-01T13:51:05.828Z,96597.58
2019-04-01T13:53:37.559Z,96598.68
2019-04-01T13:56:10.409Z,96597.46
2019-04-01T13:58:42.778Z,96586.63
2019-04-01T14:01:14.503Z,96582.78
2019-04-01T14:03:46.239Z,96579.42
2019-04-01T14:06:18.013Z,96582.33
2019-04-01T14:08:50.487Z,96581.61
2019-04-01T14:11:23.073Z,96576.49
2019-04-01T14:13:54.916Z,96569.12
2019-04-01T14:16:26.782Z,96572.22
2019-04-01T14:18:58.567Z,96571.49
2019-04-01T14:21:30.304Z,96569.12
2019-04-01T14:24:02.028Z,96563.81
2019-04-01T14:26:34.009Z,96557.36
2019-04-01T14:29:06.147Z,96559.73
2019-04-01T14:31:38.643Z,96559.34
2019-04-01T14:34:13.857Z,96556.11
2019-04-01T14:36:45.017Z,96556.89
2019-04-01T14:39:16.751Z,96551.73
2019-04-01T14:41:48.445Z,96544.97
2019-04-01T14:44:20.176Z,96550.76
2019-04-01T14:46:51.967Z,96548.66
2019-04-01T14:49:23.694Z,96553.84
2019-04-01T14:51:55.542Z,96549.53
2019-04-01T14:54:27.337Z,96546.61
2019-04-01T14:56:59.110Z,96548.18
2019-04-01T14:59:30.898Z,96540.02
2019-04-01T15:02:03.822Z,96536.78
2019-04-01T15:04:35.719Z,96541.19
2019-04-01T15:07:07.574Z,96537.20
2019-04-01T15:09:39.309Z,96536.81
2019-04-01T15:12:11.077Z,96541.25
2019-04-01T15:14:42.859Z,96535.09
2019-04-01T15:17:14.573Z,96534.22
2019-04-01T15:19:48.532Z,96537.47
2019-04-01T15:22:20.038Z,96539.08
2019-04-01T15:24:51.866Z,96537.15
2019-04-01T15:27:23.638Z,96535.77
2019-04-01T15:29:55.354Z,96538.43
2019-04-01T15:32:28.455Z,96538.47
2019-04-01T15:35:00.314Z,96535.19
2019-04-01T15:37:32.380Z,96530.89
2019-04-01T15:40:05.092Z,96530.34
2019-04-01T15:42:36.799Z,96529.75
2019-04-01T15:45:09.301Z,96532.86
2019-04-01T15:47:41.079Z,96523.33
2019-04-01T15:50:27.298Z,96521.33
2019-04-01T15:52:46.640Z,96521.17
2019-04-01T15:55:18.428Z,96519.16
2019-04-01T15:57:50.136Z,96522.30
2019-04-01T16:00:22.012Z,96512.08
2019-04-01T16:02:53.844Z,96514.75
2019-04-01T16:05:30.310Z,96511.43
2019-04-01T16:08:00.191Z,96503.84
2019-04-01T16:10:31.979Z,96506.77
2019-04-01T16:13:03.708Z,96509.94
2019-04-01T16:15:35.498Z,96504.50
2019-04-01T16:18:07.291Z,96503.98
2019-04-01T16:20:39.092Z,96501.22
2019-04-01T16:23:11.320Z,96500.31
2019-04-01T16:25:43.572Z,96497.53
2019-04-01T16:28:15.289Z,96495.42
2019-04-01T16:30:47.025Z,96491.38
2019-04-01T16:33:19.170Z,96492.25
2019-04-01T16:35:50.906Z,96496.52
2019-04-01T16:38:23.592Z,96498.01
2019-04-01T16:40:55.451Z,96500.59
2019-04-01T16:43:27.150Z,96499.75
2019-04-01T16:45:59.278Z,96495.95
2019-04-01T16:48:31.053Z,96497.63
2019-04-01T16:51:03.497Z,96497.64
2019-04-01T16:53:35.467Z,96493.12
2019-04-01T16:56:07.480Z,96488.13
2019-04-01T16:58:39.265Z,96489.64
2019-04-01T17:01:11.960Z,96487.49
2019-04-01T17:03:43.664Z,96484.84
2019-04-01T17:06:15.998Z,96481.27
2019-04-01T17:08:49.318Z,96482.13
2019-04-01T17:11:21.395Z,96482.86
2019-04-01T17:13:53.126Z,96479.77
2019-04-01T17:16:24.931Z,96483.96
2019-04-01T17:18:57.767Z,96482.70
2019-04-01T17:21:29.590Z,96480.28
2019-04-01T17:24:01.380Z,96480.45
2019-04-01T17:26:47.793Z,96483.57
2019-04-01T17:29:19.508Z,96485.29
2019-04-01T17:31:51.541Z,96488.01
2019-04-01T17:34:23.393Z,96486.91
2019-04-01T17:36:56.311Z,96486.23
2019-04-01T17:39:28.163Z,96488.22
2019-04-01T17:41:59.978Z,96491.90
2019-04-01T17:44:31.825Z,96494.79
2019-04-01T17:47:03.887Z,96495.05
2019-04-01T17:49:36.471Z,96498.93
2019-04-01T17:52:09.335Z,96500.78
2019-04-01T17:54:41.206Z,96507.69
2019-04-01T17:57:12.995Z,96504.95
2019-04-01T17:59:44.867Z,96503.11
2019-04-01T18:02:28.284Z,96503.28
2019-04-01T18:05:00.007Z,96503.73
2019-04-01T18:07:31.739Z,96504.58
2019-04-01T18:10:03.455Z,96500.67
2019-04-01T18:12:35.595Z,96507.88
2019-04-01T18:15:07.552Z,96506.92
2019-04-01T18:17:41.180Z,96510.22
2019-04-01T18:20:13.455Z,96518.84
2019-04-01T18:22:45.408Z,96518.25
2019-04-01T18:25:17.392Z,96521.84
2019-04-01T18:27:49.305Z,96518.66
2019-04-01T18:30:21.777Z,96518.00
2019-04-01T18:32:55.412Z,96515.17
2019-04-01T18:35:27.031Z,96521.78
2019-04-01T18:37:59.192Z,96526.48
2019-04-01T18:40:33.253Z,96531.13
2019-04-01T18:43:04.923Z,96524.91
2019-04-01T18:45:36.719Z,96524.64
2019-04-01T18:48:08.855Z,96522.20
2019-04-01T18:50:40.619Z,96525.23
2019-04-01T18:53:12.782Z,96526.69
2019-04-01T18:55:44.562Z,96529.84
2019-04-01T18:58:16.691Z,96528.66
2019-04-01T19:00:48.551Z,96531.95
2019-04-01T19:03:23.787Z,96534.07
2019-04-01T19:05:54.448Z,96533.22
2019-04-01T19:08:26.170Z,96530.38
2019-04-01T19:11:02.598Z,96534.43
2019-04-01T19:13:32.436Z,96531.70
2019-04-01T19:16:05.880Z,96535.81
2019-04-01T19:18:39.605Z,96538.88
2019-04-01T19:21:11.844Z,96539.11
2019-04-01T19:23:44.073Z,96537.99
2019-04-01T19:26:15.793Z,96538.92
2019-04-01T19:28:47.511Z,96537.47
2019-04-01T19:31:19.676Z,96540.89
2019-04-01T19:33:51.961Z,96545.50
2019-04-01T19:36:23.664Z,96548.48
2019-04-01T19:38:55.448Z,96544.03
2019-04-01T19:41:27.663Z,96548.02
2019-04-01T19:43:59.361Z,96550.30
2019-04-01T19:46:32.350Z,96552.69
2019-04-01T19:49:05.210Z,96555.69
2019-04-01T19:51:37.119Z,96555.00
2019-04-01T19:54:08.990Z,96546.76
2019-04-01T19:56:41.204Z,96544.06
2019-04-01T19:59:13.007Z,96548.57
2019-04-01T20:01:44.731Z,96550.74
2019-04-01T20:04:16.445Z,96548.46
2019-04-01T20:06:48.434Z,96553.45
2019-04-01T20:09:20.141Z,96552.44
2019-04-01T20:11:51.873Z,96548.18
2019-04-01T20:14:23.589Z,96550.52
2019-04-01T20:16:55.388Z,96544.95
2019-04-01T20:19:27.189Z,96543.26
2019-04-01T20:21:58.907Z,96543.59
2019-04-01T20:24:30.955Z,96544.41
2019-04-01T20:27:02.728Z,96547.59
2019-04-01T20:29:34.543Z,96548.25
2019-04-01T20:32:16.715Z,96549.94
2019-04-01T20:34:39.810Z,96545.99
2019-04-01T20:37:11.744Z,96547.59
2019-04-01T20:39:43.885Z,96545.94
2019-04-01T20:42:17.096Z,96543.42
2019-04-01T20:44:49.070Z,96533.42
2019-04-01T20:47:20.765Z,96536.92
2019-04-01T20:49:52.470Z,96537.07
2019-04-01T20:52:24.540Z,96533.16
2019-04-01T20:54:56.325Z,96534.33
2019-04-01T20:57:28.440Z,96535.45
2019-04-01T21:00:00.145Z,96531.54
2019-04-01T21:02:32.177Z,96534.80
2019-04-01T21:05:06.012Z,96526.23
2019-04-01T21:07:37.795Z,96525.77
2019-04-01T21:10:10.287Z,96527.88
2019-04-01T21:12:43.074Z,96524.95
2019-04-01T21:15:14.962Z,96526.09
2019-04-01T21:17:46.745Z,96526.27
2019-04-01T21:20:18.638Z,96524.75
2019-04-01T21:22:50.434Z,96525.92
2019-04-01T21:25:22.228Z,96517.03
2019-04-01T21:27:54.035Z,96524.28
2019-04-01T21:30:25.857Z,96520.03
2019-04-01T21:32:57.878Z,96520.52
2019-04-01T21:35:29.598Z,96512.11
2019-04-01T21:38:01.365Z,96515.08
2019-04-01T21:40:33.071Z,96515.74
2019-04-01T21:43:04.862Z,96504.88
2019-04-01T21:45:36.645Z,96507.18
2019-04-01T21:48:10.427Z,96506.21
2019-04-01T21:50:41.852Z,96498.32
2019-04-01T21:53:13.645Z,96503.06
2019-04-01T21:55:45.446Z,96499.62
2019-04-01T21:58:17.169Z,96500.27
2019-04-01T22:00:51.711Z,96502.89
2019-04-01T22:03:23.809Z,96502.42
2019-04-01T22:05:55.607Z,96491.73
2019-04-01T22:08:27.664Z,96497.32
2019-04-01T22:11:01.003Z,96490.40
2019-04-01T22:13:32.955Z,96485.47
2019-04-01T22:16:04.890Z,96488.13
2019-04-01T22:18:36.606Z,96480.72
2019-04-01T22:21:08.456Z,96482.36
2019-04-01T22:23:40.186Z,96477.58
2019-04-01T22:26:12.254Z,96473.79
2019-04-01T22:28:44.309Z,96470.36
2019-04-01T22:31:16.015Z,96470.67
2019-04-01T22:33:47.733Z,96467.70
2019-04-01T22:36:30.419Z,96465.09
2019-04-01T22:38:53.475Z,96464.08
2019-04-01T22:41:25.184Z,96465.22
2019-04-01T22:44:00.974Z,96463.08
2019-04-01T22:46:50.821Z,96455.69
2019-04-01T22:49:22.545Z,96459.63
2019-04-01T22:51:54.248Z,96453.86
2019-04-01T22:54:25.971Z,96455.82
2019-04-01T22:56:57.658Z,96451.88
2019-04-01T22:59:29.377Z,96452.19
2019-04-01T23:02:01.415Z,96445.62
2019-04-01T23:04:33.385Z,96444.31
2019-04-01T23:07:05.248Z,96448.25
2019-04-01T23:09:37.010Z,96446.91
2019-04-01T23:12:08.822Z,96449.53
2019-04-01T23:14:40.840Z,96447.58
2019-04-01T23:17:12.541Z,96445.41
2019-04-01T23:19:44.258Z,96443.61
2019-04-01T23:22:15.951Z,96438.99
2019-04-01T23:24:47.745Z,96435.73
2019-04-01T23:27:19.546Z,96435.02
2019-04-01T23:29:51.677Z,96434.72
2019-04-01T23:32:23.741Z,96432.24
2019-04-01T23:34:55.550Z,96436.82
2019-04-01T23:37:27.247Z,96435.99
2019-04-01T23:39:59.250Z,96426.80
2019-04-01T23:42:30.955Z,96429.05
2019-04-01T23:45:02.662Z,96421.51
2019-04-01T23:47:34.525Z,96424.47
2019-04-01T23:50:09.150Z,96427.73
2019-04-01T23:52:41.321Z,96432.27
2019-04-01T23:55:13.170Z,96426.64
2019-04-01T23:57:44.937Z,96429.26
